createdAt,value
2023-05-04T00:00:29.392Z,44.91
2023-05-04T00:02:59.134Z,44.49
2023-05-04T00:05:28.862Z,44.94
2023-05-04T00:07:58.820Z,44.94
2023-05-04T00:10:29.636Z,45.19
2023-05-04T00:12:59.451Z,45.25
2023-05-04T00:15:29.744Z,44.96
2023-05-04T00:17:59.508Z,44.77
2023-05-04T00:20:29.243Z,44.90
2023-05-04T00:22:59.060Z,44.98
2023-05-04T00:25:28.783Z,44.69
2023-05-04T00:27:58.669Z,44.88
2023-05-04T00:30:28.698Z,44.64
2023-05-04T00:32:59.537Z,45.02
2023-05-04T00:35:31.378Z,44.99
2023-05-04T00:38:01.084Z,44.87
2023-05-04T00:40:30.721Z,44.67
2023-05-04T00:43:00.517Z,44.75
2023-05-04T00:45:30.246Z,44.52
2023-05-04T00:48:00.214Z,44.76
2023-05-04T00:50:29.886Z,44.93
2023-05-04T00:53:01.436Z,45.10
2023-05-04T00:55:34.144Z,44.83
2023-05-04T00:58:04.104Z,44.98
2023-05-04T01:00:33.807Z,45.05
2023-05-04T01:03:03.576Z,45.13
2023-05-04T01:05:37.362Z,44.63
2023-05-04T01:08:17.296Z,44.89
2023-05-04T01:11:00.192Z,44.84
2023-05-04T01:13:29.870Z,44.56
2023-05-04T01:15:59.518Z,44.71
2023-05-04T01:18:29.255Z,44.56
2023-05-04T01:20:58.932Z,44.39
2023-05-04T01:23:28.996Z,44.60
2023-05-04T01:26:03.362Z,44.77
2023-05-04T01:28:44.738Z,44.84
2023-05-04T01:31:15.889Z,44.62
2023-05-04T01:33:46.423Z,44.87
2023-05-04T01:36:16.117Z,44.63
2023-05-04T01:38:45.772Z,44.86
2023-05-04T01:41:15.417Z,44.72
2023-05-04T01:43:45.076Z,44.83
2023-05-04T01:46:14.756Z,44.80
2023-05-04T01:48:44.457Z,45.00
2023-05-04T01:51:14.172Z,44.89
2023-05-04T01:53:43.886Z,44.68
2023-05-04T01:56:16.829Z,44.92
2023-05-04T01:58:46.524Z,44.76
2023-05-04T02:01:16.296Z,44.70
2023-05-04T02:03:46.275Z,44.74
2023-05-04T02:06:16.013Z,44.91
2023-05-04T02:08:45.801Z,44.67
2023-05-04T02:11:17.803Z,45.09
2023-05-04T02:13:47.664Z,44.67
2023-05-04T02:16:17.511Z,44.88
2023-05-04T02:18:48.119Z,44.55
2023-05-04T02:21:19.834Z,44.51
2023-05-04T02:23:49.583Z,44.42
2023-05-04T02:26:19.283Z,44.55
2023-05-04T02:28:50.872Z,44.36
2023-05-04T02:31:41.024Z,44.26
2023-05-04T02:34:10.677Z,44.24
2023-05-04T02:36:40.327Z,44.38
2023-05-04T02:39:09.988Z,44.12
2023-05-04T02:41:39.607Z,44.00
2023-05-04T02:44:09.261Z,44.17
2023-05-04T02:46:38.965Z,43.80
2023-05-04T02:49:09.600Z,43.85
2023-05-04T02:51:39.257Z,43.88
2023-05-04T02:54:09.911Z,43.83
2023-05-04T02:56:39.631Z,44.04
2023-05-04T02:59:09.315Z,43.82
2023-05-04T03:01:39.101Z,43.67
2023-05-04T03:04:09.421Z,43.83
2023-05-04T03:06:39.279Z,43.75
2023-05-04T03:09:08.906Z,43.93
2023-05-04T03:11:38.709Z,44.15
2023-05-04T03:14:08.993Z,43.59
2023-05-04T03:16:38.733Z,43.73
2023-05-04T03:19:08.593Z,43.73
2023-05-04T03:21:38.191Z,44.18
2023-05-04T03:24:08.243Z,44.27
2023-05-04T03:26:37.960Z,44.39
2023-05-04T03:29:10.972Z,44.88
2023-05-04T03:31:41.025Z,44.51
2023-05-04T03:34:11.574Z,44.90
2023-05-04T03:36:44.295Z,45.06
2023-05-04T03:39:14.132Z,45.12
2023-05-04T03:41:43.873Z,45.20
2023-05-04T03:44:13.570Z,45.40
2023-05-04T03:46:43.244Z,45.23
2023-05-04T03:49:12.918Z,45.57
2023-05-04T03:51:42.703Z,45.48
2023-05-04T03:54:12.423Z,45.96
2023-05-04T03:56:44.896Z,45.44
2023-05-04T03:59:14.567Z,45.86
2023-05-04T04:01:44.306Z,45.77
2023-05-04T04:04:16.772Z,45.94
2023-05-04T04:06:46.520Z,45.79
2023-05-04T04:09:16.283Z,46.03
2023-05-04T04:11:46.079Z,46.25
2023-05-04T04:14:16.114Z,46.39
2023-05-04T04:16:46.019Z,46.57
2023-05-04T04:19:15.807Z,46.45
2023-05-04T04:21:48.118Z,46.41
2023-05-04T04:24:18.032Z,46.60
2023-05-04T04:26:47.749Z,46.53
2023-05-04T04:29:17.509Z,46.92
2023-05-04T04:31:47.262Z,46.65
2023-05-04T04:34:16.975Z,47.17
2023-05-04T04:36:46.722Z,46.83
2023-05-04T04:39:18.937Z,46.57
2023-05-04T04:41:48.671Z,46.80
2023-05-04T04:44:21.067Z,46.91
2023-05-04T04:46:50.839Z,46.35
2023-05-04T04:49:20.572Z,46.48
2023-05-04T04:51:50.542Z,46.32
2023-05-04T04:54:20.184Z,46.37
2023-05-04T04:56:49.786Z,46.07
2023-05-04T04:59:19.430Z,46.40
2023-05-04T05:01:50.095Z,46.38
2023-05-04T05:04:21.251Z,46.41
2023-05-04T05:06:51.256Z,46.18
2023-05-04T05:09:21.062Z,45.85
2023-05-04T05:11:50.714Z,45.95
2023-05-04T05:14:20.342Z,46.11
2023-05-04T05:16:49.987Z,45.94
2023-05-04T05:19:19.784Z,45.72
2023-05-04T05:21:49.461Z,46.04
2023-05-04T05:24:19.139Z,46.11
2023-05-04T05:26:48.881Z,45.78
2023-05-04T05:29:18.690Z,45.62
2023-05-04T05:31:48.367Z,45.66
2023-05-04T05:34:18.071Z,45.60
2023-05-04T05:36:47.707Z,45.83
2023-05-04T05:39:17.893Z,45.76
2023-05-04T05:41:47.612Z,45.33
2023-05-04T05:44:17.261Z,45.02
2023-05-04T05:46:46.900Z,45.14
2023-05-04T05:49:16.554Z,45.09
2023-05-04T05:51:46.271Z,44.92
2023-05-04T05:54:16.675Z,44.79
2023-05-04T05:56:46.279Z,44.87
2023-05-04T05:59:16.559Z,45.04
2023-05-04T06:01:46.210Z,44.65
2023-05-04T06:04:16.070Z,44.96
2023-05-04T06:06:46.223Z,45.02
2023-05-04T06:09:15.944Z,45.25
2023-05-04T06:11:45.571Z,45.08
2023-05-04T06:14:15.198Z,44.92
2023-05-04T06:16:44.907Z,44.44
2023-05-04T06:19:14.725Z,44.85
2023-05-04T06:21:44.398Z,45.01
2023-05-04T06:24:14.061Z,44.95
2023-05-04T06:26:43.942Z,44.66
2023-05-04T06:29:13.926Z,45.00
2023-05-04T06:31:45.097Z,44.83
2023-05-04T06:34:15.893Z,45.28
2023-05-04T06:36:46.012Z,45.00
2023-05-04T06:39:15.705Z,45.07
2023-05-04T06:41:45.363Z,45.22
2023-05-04T06:44:15.074Z,45.34
2023-05-04T06:46:44.691Z,45.60
2023-05-04T06:49:14.458Z,45.49
2023-05-04T06:51:44.283Z,45.49
2023-05-04T06:54:14.663Z,45.99
2023-05-04T06:56:44.852Z,45.67
2023-05-04T06:59:14.834Z,45.79
2023-05-04T07:01:44.654Z,45.86
2023-05-04T07:04:14.472Z,45.91
2023-05-04T07:06:46.752Z,46.07
2023-05-04T07:09:16.708Z,46.15
2023-05-04T07:11:46.393Z,46.18
2023-05-04T07:14:16.904Z,46.32
2023-05-04T07:16:46.681Z,46.69
2023-05-04T07:19:16.367Z,46.48
2023-05-04T07:21:45.973Z,46.65
2023-05-04T07:24:15.695Z,46.69
2023-05-04T07:26:45.311Z,46.53
2023-05-04T07:29:14.933Z,46.29
2023-05-04T07:31:44.568Z,46.85
2023-05-04T07:34:14.272Z,46.77
2023-05-04T07:36:43.946Z,46.94
2023-05-04T07:39:14.120Z,47.35
2023-05-04T07:41:43.853Z,47.91
2023-05-04T07:44:14.004Z,47.93
2023-05-04T07:46:43.637Z,47.89
2023-05-04T07:49:13.355Z,48.29
2023-05-04T07:51:43.199Z,47.85
2023-05-04T07:54:12.864Z,47.98
2023-05-04T07:56:42.822Z,48.41
2023-05-04T07:59:12.470Z,48.12
2023-05-04T08:01:43.774Z,48.08
2023-05-04T08:04:13.935Z,47.99
2023-05-04T08:06:43.708Z,48.38
2023-05-04T08:09:13.985Z,48.37
2023-05-04T08:11:43.809Z,48.64
2023-05-04T08:14:16.473Z,48.68
2023-05-04T08:16:46.175Z,48.54
2023-05-04T08:19:15.819Z,48.39
2023-05-04T08:21:45.530Z,48.79
2023-05-04T08:24:15.255Z,48.72
2023-05-04T08:26:49.588Z,48.38
2023-05-04T08:29:25.467Z,48.63
2023-05-04T08:31:57.114Z,49.21
2023-05-04T08:34:27.237Z,48.83
2023-05-04T08:36:56.947Z,48.87
2023-05-04T08:39:26.682Z,48.91
2023-05-04T08:41:56.289Z,49.19
2023-05-04T08:44:26.032Z,49.02
2023-05-04T08:46:55.684Z,49.38
2023-05-04T08:49:25.996Z,48.87
2023-05-04T08:51:55.632Z,49.06
2023-05-04T08:54:25.742Z,48.90
2023-05-04T08:56:56.630Z,49.08
2023-05-04T08:59:26.282Z,49.24
2023-05-04T09:01:58.609Z,49.38
2023-05-04T09:04:29.667Z,49.05
2023-05-04T09:07:00.080Z,49.25
2023-05-04T09:09:30.638Z,49.33
2023-05-04T09:12:00.505Z,49.14
2023-05-04T09:14:39.009Z,49.97
2023-05-04T09:17:16.290Z,49.77
2023-05-04T09:19:46.531Z,49.36
2023-05-04T09:22:20.905Z,49.39
2023-05-04T09:24:50.646Z,49.04
2023-05-04T09:27:20.243Z,49.71
2023-05-04T09:29:56.564Z,50.03
2023-05-04T09:32:26.337Z,49.39
2023-05-04T09:34:56.290Z,49.24
2023-05-04T09:37:25.939Z,49.26
2023-05-04T09:40:00.396Z,49.87
2023-05-04T09:42:30.283Z,49.36
2023-05-04T09:45:03.551Z,49.87
2023-05-04T09:47:40.857Z,49.50
2023-05-04T09:50:21.332Z,49.80
2023-05-04T09:52:51.559Z,49.09
2023-05-04T09:55:21.977Z,48.93
2023-05-04T09:57:52.488Z,49.00
2023-05-04T10:00:22.607Z,48.94
2023-05-04T10:02:52.240Z,48.94
2023-05-04T10:05:23.216Z,49.09
2023-05-04T10:07:53.580Z,49.02
2023-05-04T10:10:23.498Z,48.80
2023-05-04T10:12:53.210Z,48.87
2023-05-04T10:15:22.967Z,48.86
2023-05-04T10:18:17.231Z,48.93
2023-05-04T10:21:05.049Z,48.84
2023-05-04T10:23:46.495Z,49.18
2023-05-04T10:26:31.448Z,48.83
2023-05-04T10:29:23.624Z,49.01
2023-05-04T10:31:54.858Z,48.63
2023-05-04T10:34:42.450Z,48.79
2023-05-04T10:37:18.949Z,48.61
2023-05-04T10:39:58.127Z,48.93
2023-05-04T10:42:27.753Z,48.62
2023-05-04T10:44:58.169Z,48.61
2023-05-04T10:47:34.503Z,48.67
2023-05-04T10:50:16.052Z,48.85
2023-05-04T10:52:49.434Z,48.56
2023-05-04T10:55:19.980Z,48.45
2023-05-04T10:57:56.932Z,48.59
2023-05-04T11:00:37.393Z,48.54
2023-05-04T11:03:08.946Z,48.42
2023-05-04T11:05:56.016Z,48.41
2023-05-04T11:08:26.840Z,47.82
2023-05-04T11:11:08.394Z,48.09
2023-05-04T11:13:41.239Z,47.95
2023-05-04T11:16:11.028Z,47.66
2023-05-04T11:18:40.814Z,47.80
2023-05-04T11:21:11.258Z,47.85
2023-05-04T11:23:40.962Z,47.64
2023-05-04T11:26:10.847Z,47.61
2023-05-04T11:28:41.119Z,47.68
2023-05-04T11:31:18.472Z,47.99
2023-05-04T11:33:49.677Z,47.35
2023-05-04T11:36:19.679Z,47.57
2023-05-04T11:38:49.480Z,47.44
2023-05-04T11:41:19.171Z,47.66
2023-05-04T11:43:48.829Z,47.62
2023-05-04T11:46:18.564Z,47.61
2023-05-04T11:48:48.729Z,47.55
2023-05-04T11:51:18.634Z,47.39
2023-05-04T11:53:48.520Z,47.33
2023-05-04T11:56:18.107Z,47.50
2023-05-04T11:58:47.775Z,47.12
2023-05-04T12:01:17.440Z,47.54
2023-05-04T12:03:53.978Z,47.47
2023-05-04T12:06:34.712Z,47.38
2023-05-04T12:09:06.360Z,47.65
2023-05-04T12:11:37.211Z,47.54
2023-05-04T12:14:16.984Z,47.32
2023-05-04T12:16:59.319Z,47.80
2023-05-04T12:19:28.908Z,47.41
2023-05-04T12:22:00.383Z,47.35
2023-05-04T12:24:30.029Z,46.85
2023-05-04T12:26:59.645Z,47.45
2023-05-04T12:29:29.291Z,47.21
2023-05-04T12:31:59.063Z,47.10
2023-05-04T12:34:28.712Z,47.04
2023-05-04T12:36:58.352Z,46.99
2023-05-04T12:39:30.274Z,46.92
2023-05-04T12:42:00.347Z,47.13
2023-05-04T12:44:30.252Z,46.93
2023-05-04T12:46:59.854Z,47.06
2023-05-04T12:49:29.499Z,46.96
2023-05-04T12:51:59.742Z,46.98
2023-05-04T12:54:29.401Z,46.60
2023-05-04T12:57:02.168Z,46.71
2023-05-04T12:59:31.864Z,46.71
2023-05-04T13:02:01.551Z,46.44
2023-05-04T13:04:31.277Z,46.80
2023-05-04T13:07:00.956Z,46.34
2023-05-04T13:09:30.634Z,46.48
2023-05-04T13:12:00.319Z,46.75
2023-05-04T13:14:30.303Z,46.43
2023-05-04T13:17:00.555Z,46.71
2023-05-04T13:19:30.481Z,46.44
2023-05-04T13:22:00.121Z,46.66
2023-05-04T13:24:31.204Z,46.43
2023-05-04T13:27:00.960Z,46.41
2023-05-04T13:29:30.632Z,46.43
2023-05-04T13:32:01.072Z,46.73
2023-05-04T13:34:30.813Z,46.48
2023-05-04T13:37:00.489Z,46.30
2023-05-04T13:39:30.137Z,46.53
2023-05-04T13:41:59.758Z,46.29
2023-05-04T13:44:29.379Z,46.23
2023-05-04T13:46:59.046Z,46.18
2023-05-04T13:49:28.793Z,46.12
2023-05-04T13:52:01.563Z,46.46
2023-05-04T13:54:31.232Z,45.90
2023-05-04T13:57:02.069Z,46.35
2023-05-04T13:59:32.453Z,46.38
2023-05-04T14:02:02.903Z,46.25
2023-05-04T14:04:33.237Z,46.17
2023-05-04T14:07:02.897Z,46.05
2023-05-04T14:09:32.562Z,46.29
2023-05-04T14:12:02.178Z,46.14
2023-05-04T14:14:31.871Z,46.00
2023-05-04T14:17:01.487Z,46.13
2023-05-04T14:19:31.101Z,46.08
2023-05-04T14:22:00.861Z,46.08
2023-05-04T14:24:31.193Z,46.34
2023-05-04T14:27:00.798Z,46.27
2023-05-04T14:29:30.422Z,46.22
2023-05-04T14:32:00.299Z,46.01
2023-05-04T14:34:29.995Z,45.86
2023-05-04T14:36:59.687Z,45.95
2023-05-04T14:39:29.441Z,46.08
2023-05-04T14:41:59.643Z,46.25
2023-05-04T14:44:31.433Z,45.83
2023-05-04T14:47:01.177Z,46.12
2023-05-04T14:52:05.353Z,45.94
2023-05-04T14:54:34.970Z,45.94
2023-05-04T14:57:04.886Z,46.03
2023-05-04T14:59:34.462Z,45.85
2023-05-04T15:02:06.970Z,45.98
2023-05-04T15:04:36.686Z,46.20
2023-05-04T15:07:07.055Z,45.99
2023-05-04T15:09:37.171Z,45.81
2023-05-04T15:12:07.149Z,45.78
2023-05-04T15:14:38.415Z,45.82
2023-05-04T15:17:08.788Z,46.08
2023-05-04T15:19:41.634Z,45.96
2023-05-04T15:22:11.261Z,45.81
2023-05-04T15:24:40.933Z,45.88
2023-05-04T15:27:10.631Z,45.89
2023-05-04T15:29:40.268Z,45.58
2023-05-04T15:32:09.962Z,45.65
2023-05-04T15:34:39.577Z,45.76
2023-05-04T15:37:09.217Z,45.66
2023-05-04T15:39:38.985Z,45.70
2023-05-04T15:42:08.673Z,45.76
2023-05-04T15:44:38.389Z,45.47
2023-05-04T15:49:44.794Z,45.70
2023-05-04T15:52:14.396Z,46.06
2023-05-04T15:54:44.090Z,45.90
2023-05-04T15:57:13.760Z,45.83
2023-05-04T15:59:43.506Z,45.64
2023-05-04T16:02:13.302Z,46.08
2023-05-04T16:04:44.038Z,45.73
2023-05-04T16:07:13.746Z,46.11
2023-05-04T16:09:43.462Z,45.80
2023-05-04T16:12:13.156Z,46.04
2023-05-04T16:14:43.028Z,46.00
2023-05-04T16:17:12.786Z,46.20
2023-05-04T16:19:42.804Z,46.53
2023-05-04T16:22:12.487Z,46.19
2023-05-04T16:24:42.140Z,45.93
2023-05-04T16:27:11.741Z,46.22
2023-05-04T16:29:42.088Z,46.14
2023-05-04T16:34:41.080Z,45.87
2023-05-04T16:37:11.066Z,46.21
2023-05-04T16:39:41.047Z,45.98
2023-05-04T16:42:10.887Z,46.23
2023-05-04T16:44:40.510Z,46.07
2023-05-04T16:47:10.131Z,45.96
2023-05-04T16:49:39.786Z,46.04
2023-05-04T16:52:09.446Z,46.02
2023-05-04T16:54:39.090Z,46.34
2023-05-04T16:57:09.024Z,45.88
2023-05-04T16:59:38.661Z,46.09
2023-05-04T17:02:10.038Z,46.03
2023-05-04T17:04:40.108Z,46.19
2023-05-04T17:07:10.888Z,46.09
2023-05-04T17:09:40.854Z,46.22
2023-05-04T17:12:10.510Z,46.13
2023-05-04T17:14:40.124Z,46.31
2023-05-04T17:17:09.832Z,46.22
2023-05-04T17:19:41.976Z,46.36
2023-05-04T17:22:12.730Z,46.32
2023-05-04T17:24:45.295Z,46.37
2023-05-04T17:27:15.397Z,46.39
2023-05-04T17:29:45.618Z,46.29
2023-05-04T17:32:15.330Z,46.29
2023-05-04T17:34:45.093Z,46.46
2023-05-04T17:37:14.694Z,46.22
2023-05-04T17:39:44.327Z,46.02
2023-05-04T17:42:14.994Z,46.33
2023-05-04T17:44:44.665Z,46.18
2023-05-04T17:47:14.298Z,46.39
2023-05-04T17:49:43.919Z,46.24
2023-05-04T17:52:16.971Z,46.45
2023-05-04T17:54:46.555Z,46.23
2023-05-04T17:57:18.088Z,46.72
2023-05-04T17:59:48.674Z,46.30
2023-05-04T18:02:18.330Z,46.45
2023-05-04T18:04:47.914Z,46.53
2023-05-04T18:07:17.571Z,46.34
2023-05-04T18:09:47.272Z,46.65
2023-05-04T18:12:17.181Z,46.33
2023-05-04T18:14:46.769Z,46.42
2023-05-04T18:17:16.492Z,46.46
2023-05-04T18:19:46.495Z,46.40
2023-05-04T18:22:16.101Z,46.66
2023-05-04T18:24:49.340Z,46.32
2023-05-04T18:27:18.996Z,46.61
2023-05-04T18:29:50.029Z,46.30
2023-05-04T18:32:19.712Z,46.24
2023-05-04T18:34:53.131Z,46.40
2023-05-04T18:37:26.524Z,46.63
2023-05-04T18:39:56.219Z,46.60
2023-05-04T18:42:26.035Z,46.79
2023-05-04T18:44:56.299Z,46.55
2023-05-04T18:47:25.953Z,46.40
2023-05-04T18:49:57.709Z,46.43
2023-05-04T18:52:27.422Z,46.43
2023-05-04T18:54:57.459Z,46.47
2023-05-04T18:57:29.427Z,46.24
2023-05-04T18:59:59.717Z,46.23
2023-05-04T19:02:31.375Z,46.35
2023-05-04T19:05:01.048Z,46.08
2023-05-04T19:07:33.393Z,46.29
2023-05-04T19:10:03.217Z,46.24
2023-05-04T19:12:33.063Z,46.43
2023-05-04T19:15:02.801Z,46.41
2023-05-04T19:17:32.461Z,46.42
2023-05-04T19:20:02.726Z,46.29
2023-05-04T19:22:32.977Z,46.43
2023-05-04T19:25:02.632Z,46.26
2023-05-04T19:27:32.320Z,46.25
2023-05-04T19:30:02.010Z,46.42
2023-05-04T19:32:34.237Z,46.18
2023-05-04T19:35:04.088Z,46.02
2023-05-04T19:37:34.219Z,46.00
2023-05-04T19:40:03.890Z,46.16
2023-05-04T19:42:33.643Z,45.94
2023-05-04T19:45:03.258Z,45.99
2023-05-04T19:47:33.895Z,46.23
2023-05-04T19:50:03.571Z,46.21
2023-05-04T19:52:33.146Z,46.34
2023-05-04T19:55:02.780Z,45.96
2023-05-04T19:57:32.453Z,46.17
2023-05-04T20:00:02.422Z,46.27
2023-05-04T20:02:32.720Z,46.32
2023-05-04T20:05:02.437Z,46.47
2023-05-04T20:07:32.073Z,46.55
2023-05-04T20:10:01.885Z,46.64
2023-05-04T20:12:31.576Z,46.91
2023-05-04T20:15:01.245Z,46.57
2023-05-04T20:17:31.000Z,46.83
2023-05-04T20:20:00.777Z,47.03
2023-05-04T20:22:30.484Z,47.00
2023-05-04T20:25:00.437Z,47.34
2023-05-04T20:27:30.057Z,47.18
2023-05-04T20:30:00.408Z,47.18
2023-05-04T20:32:30.420Z,47.45
2023-05-04T20:35:00.034Z,47.27
2023-05-04T20:37:29.799Z,47.79
2023-05-04T20:39:59.407Z,47.54
2023-05-04T20:42:29.054Z,47.35
2023-05-04T20:44:58.671Z,47.55
2023-05-04T20:47:28.352Z,47.93
2023-05-04T20:49:58.180Z,47.69
2023-05-04T20:52:27.809Z,47.73
2023-05-04T20:54:57.565Z,47.78
2023-05-04T20:57:27.406Z,47.67
2023-05-04T20:59:57.952Z,48.23
2023-05-04T21:02:27.697Z,48.05
2023-05-04T21:04:57.357Z,48.12
2023-05-04T21:07:27.213Z,47.76
2023-05-04T21:10:00.260Z,48.57
2023-05-04T21:12:29.997Z,48.34
2023-05-04T21:14:59.629Z,48.80
2023-05-04T21:17:29.373Z,48.91
2023-05-04T21:19:59.026Z,48.29
2023-05-04T21:22:29.584Z,48.81
2023-05-04T21:24:59.191Z,48.82
2023-05-04T21:27:28.808Z,49.13
2023-05-04T21:29:58.541Z,49.05
2023-05-04T21:32:28.988Z,49.02
2023-05-04T21:34:58.648Z,49.17
2023-05-04T21:37:28.463Z,49.12
2023-05-04T21:39:58.218Z,49.16
2023-05-04T21:42:27.867Z,49.47
2023-05-04T21:45:00.304Z,49.62
2023-05-04T21:47:29.998Z,49.33
2023-05-04T21:49:59.593Z,49.74
2023-05-04T21:52:29.223Z,49.20
2023-05-04T21:54:58.943Z,49.27
2023-05-04T21:57:29.134Z,49.63
2023-05-04T21:59:58.776Z,48.89
2023-05-04T22:02:28.391Z,49.22
2023-05-04T22:04:58.061Z,49.24
2023-05-04T22:07:28.236Z,49.15
2023-05-04T22:09:57.835Z,49.29
2023-05-04T22:12:27.593Z,49.48
2023-05-04T22:14:57.297Z,49.34
2023-05-04T22:17:27.076Z,49.71
2023-05-04T22:19:56.759Z,49.83
2023-05-04T22:22:26.511Z,49.96
2023-05-04T22:24:56.276Z,49.48
2023-05-04T22:27:25.979Z,49.22
2023-05-04T22:29:55.628Z,49.71
2023-05-04T22:32:25.316Z,49.76
2023-05-04T22:34:54.998Z,49.86
2023-05-04T22:37:24.677Z,49.95
2023-05-04T22:39:54.594Z,50.02
2023-05-04T22:42:24.819Z,49.91
2023-05-04T22:44:54.473Z,49.89
2023-05-04T22:47:24.199Z,49.90
2023-05-04T22:49:57.728Z,50.25
2023-05-04T22:52:27.390Z,50.13
2023-05-04T22:54:57.063Z,49.76
2023-05-04T22:57:27.178Z,50.40
2023-05-04T22:59:56.829Z,50.00
2023-05-04T23:02:26.617Z,50.41
2023-05-04T23:04:56.410Z,50.46
2023-05-04T23:07:26.105Z,50.08
2023-05-04T23:09:55.796Z,50.27
2023-05-04T23:12:26.954Z,50.16
2023-05-04T23:14:56.580Z,49.76
2023-05-04T23:17:26.341Z,50.19
2023-05-04T23:19:56.031Z,50.37
2023-05-04T23:22:26.314Z,50.40
2023-05-04T23:24:56.187Z,50.73
2023-05-04T23:27:25.854Z,50.25
2023-05-04T23:29:55.696Z,50.49
2023-05-04T23:32:25.344Z,50.56
2023-05-04T23:34:55.403Z,50.49
2023-05-04T23:37:25.079Z,50.67
2023-05-04T23:39:54.687Z,50.59
2023-05-04T23:42:24.336Z,50.81
2023-05-04T23:44:57.228Z,50.95
2023-05-04T23:47:26.957Z,51.16
2023-05-04T23:49:56.667Z,51.02
2023-05-04T23:52:26.357Z,50.69
2023-05-04T23:54:56.436Z,50.83
2023-05-04T23:57:26.134Z,50.54
2023-05-04T23:59:55.777Z,51.34
